createdAt,value
2019-02-10T00:02:01.691Z,3.42
2019-02-10T00:04:51.645Z,2.67
2019-02-10T00:07:41.575Z,3.20
2019-02-10T00:10:31.486Z,4.20
2019-02-10T00:13:32.405Z,2.15
2019-02-10T00:16:22.457Z,4.10
2019-02-10T00:19:12.301Z,3.60
2019-02-10T00:22:02.572Z,3.80
2019-02-10T00:24:52.597Z,3.85
2019-02-10T00:27:42.553Z,3.85
2019-02-10T00:30:32.362Z,5.72
2019-02-10T00:33:22.056Z,3.50
2019-02-10T00:36:12.026Z,4.40
2019-02-10T00:39:01.893Z,3.58
2019-02-10T00:41:53.435Z,4.00
2019-02-10T00:44:43.592Z,4.53
2019-02-10T00:47:33.494Z,3.35
2019-02-10T00:50:23.430Z,4.25
2019-02-10T00:53:13.297Z,3.47
2019-02-10T00:56:03.624Z,3.33
2019-02-10T00:58:53.355Z,3.05
2019-02-10T01:01:43.271Z,2.98
2019-02-10T01:04:33.222Z,4.22
2019-02-10T01:07:23.701Z,3.55
2019-02-10T01:10:13.861Z,5.20
2019-02-10T01:13:03.776Z,3.33
2019-02-10T01:15:53.733Z,3.87
2019-02-10T01:19:05.795Z,4.25
2019-02-10T01:21:55.533Z,3.90
2019-02-10T01:24:45.263Z,3.10
2019-02-10T01:27:35.124Z,2.98
2019-02-10T01:30:25.243Z,3.33
2019-02-10T01:33:14.916Z,3.20
2019-02-10T01:36:05.001Z,3.95
2019-02-10T01:38:54.755Z,3.12
2019-02-10T01:41:44.596Z,4.92
2019-02-10T01:44:34.281Z,4.37
2019-02-10T01:47:24.145Z,3.45
2019-02-10T01:50:14.242Z,4.03
2019-02-10T01:53:04.014Z,3.60
2019-02-10T01:55:53.979Z,4.87
2019-02-10T01:58:43.675Z,4.60
2019-02-10T02:01:33.814Z,3.50
2019-02-10T02:04:23.820Z,5.10
2019-02-10T02:07:14.154Z,4.65
2019-02-10T02:10:04.662Z,3.67
2019-02-10T02:12:54.561Z,4.08
2019-02-10T02:15:44.904Z,3.67
2019-02-10T02:18:34.501Z,4.85
2019-02-10T02:21:24.464Z,3.00
2019-02-10T02:24:14.450Z,3.65
2019-02-10T02:27:04.439Z,3.98
2019-02-10T02:29:53.926Z,3.80
2019-02-10T02:32:44.016Z,5.87
2019-02-10T02:35:34.066Z,3.33
2019-02-10T02:38:23.875Z,4.15
2019-02-10T02:41:13.371Z,4.87
2019-02-10T02:44:03.134Z,5.85
2019-02-10T02:46:52.992Z,4.67
2019-02-10T02:49:42.876Z,4.97
2019-02-10T02:52:32.685Z,5.62
2019-02-10T02:55:22.733Z,4.65
2019-02-10T02:58:12.775Z,3.98
2019-02-10T03:01:02.392Z,4.25
2019-02-10T03:03:52.421Z,3.58
2019-02-10T03:06:51.476Z,3.60
2019-02-10T03:09:41.084Z,4.70
2019-02-10T03:12:31.155Z,3.75
2019-02-10T03:15:21.144Z,4.37
2019-02-10T03:18:10.612Z,4.20
2019-02-10T03:21:00.581Z,3.05
2019-02-10T03:23:50.515Z,5.50
2019-02-10T03:26:40.444Z,4.15
2019-02-10T03:29:30.584Z,3.75
2019-02-10T03:32:20.433Z,4.85
2019-02-10T03:35:10.746Z,4.45
2019-02-10T03:38:00.396Z,3.47
2019-02-10T03:40:50.215Z,4.25
2019-02-10T03:43:40.045Z,3.92
2019-02-10T03:46:30.051Z,4.33
2019-02-10T03:49:20.021Z,5.12
2019-02-10T03:52:10.524Z,5.78
2019-02-10T03:55:00.440Z,5.12
2019-02-10T03:57:50.621Z,4.45
2019-02-10T04:00:40.663Z,4.47
2019-02-10T04:03:30.816Z,5.40
2019-02-10T04:06:20.544Z,4.92
2019-02-10T04:09:10.741Z,5.62
2019-02-10T04:12:00.846Z,5.15
2019-02-10T04:14:50.815Z,4.80
2019-02-10T04:17:40.569Z,4.65
2019-02-10T04:20:30.544Z,4.45
2019-02-10T04:23:23.931Z,4.00
2019-02-10T04:26:13.841Z,4.42
2019-02-10T04:29:04.016Z,4.03
2019-02-10T04:31:53.962Z,3.85
2019-02-10T04:34:44.207Z,4.70
2019-02-10T04:37:33.975Z,4.15
2019-02-10T04:40:24.262Z,4.40
2019-02-10T04:43:14.560Z,5.33
2019-02-10T04:46:04.295Z,4.12
2019-02-10T04:48:54.441Z,4.35
2019-02-10T04:51:44.449Z,4.97
2019-02-10T04:54:34.858Z,4.12
2019-02-10T04:57:25.192Z,4.83
2019-02-10T05:00:14.996Z,4.60
2019-02-10T05:03:05.111Z,4.30
2019-02-10T05:05:55.205Z,4.75
2019-02-10T05:08:45.224Z,3.75
2019-02-10T05:11:35.559Z,3.72
2019-02-10T05:14:25.901Z,4.30
2019-02-10T05:17:15.842Z,3.50
2019-02-10T05:20:05.994Z,5.50
2019-02-10T05:22:55.504Z,4.65
2019-02-10T05:25:45.132Z,3.87
2019-02-10T05:28:34.922Z,4.65
2019-02-10T05:31:24.889Z,4.35
2019-02-10T05:34:15.097Z,5.10
2019-02-10T05:37:04.955Z,4.25
2019-02-10T05:39:54.942Z,5.10
2019-02-10T05:42:45.059Z,3.37
2019-02-10T05:45:34.691Z,4.72
2019-02-10T05:48:24.572Z,4.33
2019-02-10T05:51:14.716Z,3.40
2019-02-10T05:54:04.904Z,3.75
2019-02-10T05:56:54.965Z,4.45
2019-02-10T05:59:44.656Z,5.72
2019-02-10T06:02:34.604Z,3.90
2019-02-10T06:05:26.626Z,4.37
2019-02-10T06:08:16.239Z,3.67
2019-02-10T06:11:05.984Z,3.98
2019-02-10T06:13:55.916Z,4.12
2019-02-10T06:16:45.895Z,3.83
2019-02-10T06:19:35.774Z,3.92
2019-02-10T06:22:25.804Z,3.52
2019-02-10T06:25:16.166Z,3.45
2019-02-10T06:28:06.104Z,3.60
2019-02-10T06:30:56.182Z,3.02
2019-02-10T06:33:45.917Z,4.25
2019-02-10T06:36:35.553Z,3.08
2019-02-10T06:39:25.315Z,3.83
2019-02-10T06:42:15.899Z,4.22
2019-02-10T06:45:06.279Z,4.40
2019-02-10T06:47:57.728Z,4.83
2019-02-10T06:50:47.948Z,4.65
2019-02-10T06:53:37.744Z,3.95
2019-02-10T06:56:31.196Z,2.98
2019-02-10T06:59:46.336Z,3.83
2019-02-10T07:03:16.258Z,4.05
2019-02-10T07:06:07.062Z,4.70
2019-02-10T07:08:57.051Z,3.60
2019-02-10T07:11:46.741Z,3.90
2019-02-10T07:14:38.798Z,3.42
2019-02-10T07:17:53.394Z,3.50
2019-02-10T07:20:44.111Z,3.58
2019-02-10T07:24:02.776Z,2.98
2019-02-10T07:26:56.282Z,3.33
2019-02-10T07:30:32.925Z,3.70
2019-02-10T07:33:47.042Z,3.17
2019-02-10T07:37:12.101Z,4.12
2019-02-10T07:40:55.309Z,4.95
2019-02-10T07:44:11.403Z,2.95
2019-02-10T07:47:33.984Z,5.45
2019-02-10T07:50:32.994Z,4.25
2019-02-10T07:53:48.018Z,3.85
2019-02-10T07:57:16.815Z,3.22
2019-02-10T08:00:38.554Z,5.30
2019-02-10T08:04:02.873Z,3.15
2019-02-10T08:07:12.672Z,3.95
2019-02-10T08:10:33.812Z,4.03
2019-02-10T08:14:07.403Z,3.10
2019-02-10T08:17:13.841Z,3.70
2019-02-10T08:20:59.561Z,3.83
2019-02-10T08:24:42.281Z,3.52
2019-02-10T08:28:08.417Z,2.90
2019-02-10T08:31:44.276Z,3.10
2019-02-10T08:35:20.134Z,6.12
2019-02-10T08:38:55.278Z,3.75
2019-02-10T08:42:44.140Z,4.50
2019-02-10T08:45:56.225Z,4.60
2019-02-10T08:48:57.412Z,3.92
2019-02-10T08:52:32.011Z,3.60
2019-02-10T08:55:22.110Z,4.25
2019-02-10T08:58:12.215Z,4.33
2019-02-10T09:01:01.876Z,5.67
2019-02-10T09:03:51.882Z,4.05
2019-02-10T09:06:41.895Z,3.60
2019-02-10T09:09:31.943Z,4.80
2019-02-10T09:12:21.406Z,4.20
2019-02-10T09:15:11.811Z,4.65
2019-02-10T09:18:01.655Z,4.17
2019-02-10T09:20:52.203Z,2.90
2019-02-10T09:23:42.064Z,3.65
2019-02-10T09:26:31.741Z,4.50
2019-02-10T09:29:21.804Z,4.05
2019-02-10T09:32:11.521Z,3.30
2019-02-10T09:35:01.785Z,3.50
2019-02-10T09:37:51.481Z,2.90
2019-02-10T09:40:41.331Z,3.92
2019-02-10T09:43:31.031Z,3.10
2019-02-10T09:46:21.016Z,3.30
2019-02-10T09:49:11.031Z,2.90
2019-02-10T09:52:00.997Z,3.72
2019-02-10T09:54:51.104Z,4.67
2019-02-10T09:57:40.813Z,3.50
2019-02-10T10:00:30.461Z,3.67
2019-02-10T10:03:20.615Z,3.80
2019-02-10T10:06:10.026Z,3.75
2019-02-10T10:08:59.974Z,3.22
2019-02-10T10:11:49.471Z,3.35
2019-02-10T10:14:39.292Z,3.40
2019-02-10T10:17:29.244Z,3.20
2019-02-10T10:20:18.782Z,3.75
2019-02-10T10:23:08.871Z,2.85
2019-02-10T10:25:58.361Z,3.35
2019-02-10T10:28:48.131Z,3.37
2019-02-10T10:31:37.911Z,3.33
2019-02-10T10:34:28.025Z,2.70
2019-02-10T10:37:17.564Z,3.58
2019-02-10T10:40:07.601Z,2.83
2019-02-10T10:42:57.355Z,2.60
2019-02-10T10:45:47.135Z,3.17
2019-02-10T10:48:37.178Z,2.83
2019-02-10T10:51:27.106Z,4.47
2019-02-10T10:54:16.981Z,2.83
2019-02-10T10:57:06.944Z,3.15
2019-02-10T10:59:56.724Z,2.83
2019-02-10T11:02:46.690Z,2.83
2019-02-10T11:05:36.576Z,2.58
2019-02-10T11:08:26.604Z,3.05
2019-02-10T11:11:16.561Z,2.55
2019-02-10T11:14:06.479Z,2.95
2019-02-10T11:16:56.512Z,3.12
2019-02-10T11:19:46.535Z,2.72
2019-02-10T11:22:36.671Z,3.02
2019-02-10T11:25:26.696Z,2.80
2019-02-10T11:28:16.691Z,4.15
2019-02-10T11:31:06.577Z,3.00
2019-02-10T11:33:56.341Z,3.25
2019-02-10T11:36:46.510Z,2.70
2019-02-10T11:39:43.621Z,2.60
2019-02-10T11:42:28.507Z,3.00
2019-02-10T11:45:18.463Z,3.15
2019-02-10T11:48:08.514Z,3.15
2019-02-10T11:50:58.603Z,3.45
2019-02-10T11:53:48.435Z,3.33
2019-02-10T11:56:38.467Z,2.15
2019-02-10T11:59:28.511Z,3.15
2019-02-10T12:02:18.571Z,2.20
2019-02-10T12:05:09.374Z,3.27
2019-02-10T12:07:59.018Z,2.67
2019-02-10T12:10:48.785Z,3.27
2019-02-10T12:13:40.385Z,4.00
2019-02-10T12:16:30.517Z,3.15
2019-02-10T12:19:20.317Z,3.25
2019-02-10T12:22:10.362Z,3.60
2019-02-10T12:25:00.471Z,2.37
2019-02-10T12:27:50.345Z,3.52
2019-02-10T12:30:40.053Z,3.55
2019-02-10T12:33:30.114Z,2.75
2019-02-10T12:36:19.813Z,6.53
2019-02-10T12:39:09.965Z,4.87
2019-02-10T12:41:59.452Z,3.30
2019-02-10T12:44:49.632Z,3.92
2019-02-10T12:47:39.737Z,6.05
2019-02-10T12:50:29.415Z,3.92
2019-02-10T12:53:19.515Z,7.12
2019-02-10T12:56:09.582Z,5.37
2019-02-10T12:58:59.371Z,6.35
2019-02-10T13:01:49.522Z,4.35
2019-02-10T13:04:39.614Z,4.30
2019-02-10T13:07:29.434Z,4.10
2019-02-10T13:10:19.424Z,6.20
2019-02-10T13:13:09.593Z,4.65
2019-02-10T13:15:59.365Z,4.20
2019-02-10T13:18:49.262Z,5.90
2019-02-10T13:21:39.272Z,4.65
2019-02-10T13:24:29.280Z,5.12
2019-02-10T13:27:19.354Z,5.53
2019-02-10T13:30:11.276Z,4.40
2019-02-10T13:33:02.793Z,4.97
2019-02-10T13:35:54.254Z,4.65
2019-02-10T13:38:46.399Z,5.03
2019-02-10T13:41:37.909Z,4.55
2019-02-10T13:44:28.172Z,4.10
2019-02-10T13:47:18.352Z,4.30
2019-02-10T13:50:09.811Z,4.85
2019-02-10T13:53:00.461Z,4.17
2019-02-10T13:55:51.544Z,4.53
2019-02-10T13:58:42.103Z,4.37
2019-02-10T14:01:32.303Z,4.67
2019-02-10T14:04:23.731Z,3.52
2019-02-10T14:07:14.626Z,3.65
2019-02-10T14:10:04.893Z,14.45
2019-02-10T14:12:57.202Z,5.45
2019-02-10T14:15:47.497Z,7.67
2019-02-10T14:18:37.921Z,5.35
2019-02-10T14:21:28.306Z,5.10
2019-02-10T14:24:18.828Z,4.58
2019-02-10T14:27:11.174Z,7.03
2019-02-10T14:30:02.497Z,4.95
2019-02-10T14:32:53.047Z,4.90
2019-02-10T14:35:43.387Z,5.25
2019-02-10T14:38:36.029Z,5.37
2019-02-10T14:41:26.551Z,4.95
2019-02-10T14:44:21.870Z,5.45
2019-02-10T14:47:13.163Z,5.20
2019-02-10T14:50:06.856Z,4.87
2019-02-10T14:52:56.681Z,5.87
2019-02-10T14:55:46.908Z,5.03
2019-02-10T14:58:43.144Z,5.35
2019-02-10T15:01:32.057Z,5.37
2019-02-10T15:04:22.902Z,6.60
2019-02-10T15:07:13.324Z,4.55
2019-02-10T15:10:05.131Z,4.85
2019-02-10T15:12:54.871Z,4.78
2019-02-10T15:15:45.223Z,4.00
2019-02-10T15:18:36.124Z,4.67
2019-02-10T15:21:26.824Z,4.72
2019-02-10T15:24:17.431Z,5.70
2019-02-10T15:27:07.954Z,6.12
2019-02-10T15:29:58.404Z,6.40
2019-02-10T15:32:49.377Z,6.50
2019-02-10T15:35:43.975Z,6.95
2019-02-10T15:38:35.281Z,6.95
2019-02-10T15:41:25.686Z,7.60
2019-02-10T15:44:16.426Z,7.55
2019-02-10T15:47:07.871Z,7.70
2019-02-10T15:49:58.547Z,7.92
2019-02-10T15:52:52.154Z,8.93
2019-02-10T15:55:43.101Z,9.35
2019-02-10T15:58:34.915Z,8.40
2019-02-10T16:01:26.444Z,9.10
2019-02-10T16:04:20.564Z,7.50
2019-02-10T16:07:10.397Z,8.23
2019-02-10T16:10:00.737Z,9.25
2019-02-10T16:12:50.741Z,7.42
2019-02-10T16:15:40.669Z,7.20
2019-02-10T16:18:30.913Z,6.92
2019-02-10T16:21:21.891Z,7.95
2019-02-10T16:24:12.330Z,7.50
2019-02-10T16:27:02.670Z,7.92
2019-02-10T16:29:53.351Z,7.40
2019-02-10T16:32:49.732Z,8.70
2019-02-10T16:35:36.471Z,7.10
2019-02-10T16:38:26.790Z,7.03
2019-02-10T16:41:22.550Z,6.95
2019-02-10T16:44:12.824Z,8.03
2019-02-10T16:47:03.624Z,7.45
2019-02-10T16:49:53.518Z,7.62
2019-02-10T16:52:43.355Z,7.60
2019-02-10T16:56:03.768Z,7.25
2019-02-10T16:58:57.464Z,7.65
2019-02-10T17:01:47.354Z,8.68
2019-02-10T17:04:37.162Z,8.40
2019-02-10T17:07:28.273Z,7.75
2019-02-10T17:10:18.632Z,9.33
2019-02-10T17:13:08.840Z,9.28
2019-02-10T17:16:04.969Z,10.15
2019-02-10T17:18:53.741Z,10.18
2019-02-10T17:21:45.281Z,10.60
2019-02-10T17:24:35.944Z,9.55
2019-02-10T17:27:27.111Z,9.83
2019-02-10T17:30:19.955Z,9.15
2019-02-10T17:33:12.582Z,11.43
2019-02-10T17:36:04.911Z,10.45
2019-02-10T17:38:56.721Z,7.28
2019-02-10T17:41:48.654Z,8.35
2019-02-10T17:44:39.624Z,6.67
2019-02-10T17:47:30.958Z,6.53
2019-02-10T17:50:20.994Z,4.90
2019-02-10T17:53:11.311Z,4.80
2019-02-10T17:56:02.672Z,6.00
2019-02-10T17:58:53.432Z,5.15
2019-02-10T18:01:43.847Z,4.95
2019-02-10T18:04:37.577Z,5.97
2019-02-10T18:07:25.454Z,5.05
2019-02-10T18:10:18.455Z,5.65
2019-02-10T18:13:10.414Z,5.85
2019-02-10T18:16:09.014Z,5.30
2019-02-10T18:19:10.327Z,6.37
2019-02-10T18:22:31.338Z,5.15
2019-02-10T18:25:37.710Z,6.65
2019-02-10T18:28:50.086Z,5.72
2019-02-10T18:32:02.430Z,4.55
2019-02-10T18:35:27.337Z,4.40
2019-02-10T18:38:38.918Z,3.52
2019-02-10T18:41:48.582Z,3.80
2019-02-10T18:44:47.722Z,3.52
2019-02-10T18:47:59.641Z,5.03
2019-02-10T18:51:17.805Z,4.10
2019-02-10T18:54:26.429Z,5.28
2019-02-10T18:57:29.928Z,4.70
2019-02-10T19:00:39.062Z,4.20
2019-02-10T19:03:38.159Z,3.60
2019-02-10T19:06:46.883Z,4.08
2019-02-10T19:09:54.482Z,4.03
2019-02-10T19:13:01.911Z,3.27
2019-02-10T19:15:57.877Z,2.45
2019-02-10T19:18:56.997Z,2.87
2019-02-10T19:22:04.799Z,2.12
2019-02-10T19:25:04.819Z,2.40
2019-02-10T19:28:22.867Z,2.15
2019-02-10T19:31:34.866Z,2.12
2019-02-10T19:34:53.210Z,2.20
2019-02-10T19:37:55.079Z,2.95
2019-02-10T19:41:07.075Z,3.17
2019-02-10T19:44:11.702Z,3.62
2019-02-10T19:47:06.723Z,3.00
2019-02-10T19:50:12.560Z,2.22
2019-02-10T19:53:19.952Z,1.70
2019-02-10T19:56:20.590Z,1.87
2019-02-10T19:59:22.756Z,1.62
2019-02-10T20:02:34.863Z,2.15
2019-02-10T20:05:45.222Z,1.67
2019-02-10T20:09:09.511Z,1.52
2019-02-10T20:12:15.982Z,2.10
2019-02-10T20:15:16.206Z,2.27
2019-02-10T20:18:33.837Z,3.27
2019-02-10T20:21:42.356Z,3.60
2019-02-10T20:24:44.422Z,4.15
2019-02-10T20:28:02.607Z,4.10
2019-02-10T20:31:23.578Z,3.00
2019-02-10T20:34:30.972Z,2.62
2019-02-10T20:37:33.230Z,2.00
2019-02-10T20:40:41.049Z,2.20
2019-02-10T20:43:52.840Z,1.95
2019-02-10T20:46:56.238Z,1.60
2019-02-10T20:49:57.388Z,2.02
2019-02-10T20:53:24.543Z,1.92
2019-02-10T20:56:22.104Z,2.20
2019-02-10T20:59:17.923Z,2.33
2019-02-10T21:02:38.732Z,3.37
2019-02-10T21:05:35.881Z,3.22
2019-02-10T21:08:43.683Z,2.95
2019-02-10T21:12:01.729Z,3.47
2019-02-10T21:15:04.105Z,4.08
2019-02-10T21:18:04.802Z,3.95
2019-02-10T21:21:12.029Z,5.20
2019-02-10T21:24:21.877Z,5.10
2019-02-10T21:27:30.600Z,4.67
2019-02-10T21:30:39.118Z,4.90
2019-02-10T21:33:59.926Z,6.53
2019-02-10T21:37:07.418Z,6.30
2019-02-10T21:40:20.855Z,6.10
2019-02-10T21:43:32.648Z,8.08
2019-02-10T21:46:36.048Z,7.17
2019-02-10T21:49:27.005Z,6.58
2019-02-10T21:52:16.838Z,9.03
2019-02-10T21:55:07.276Z,8.40
2019-02-10T21:57:57.141Z,8.25
2019-02-10T22:00:47.392Z,9.85
2019-02-10T22:03:37.311Z,9.85
2019-02-10T22:06:27.485Z,10.15
2019-02-10T22:09:17.572Z,11.65
2019-02-10T22:12:07.404Z,14.70
2019-02-10T22:14:57.480Z,11.85
2019-02-10T22:17:47.521Z,12.47
2019-02-10T22:20:37.954Z,10.93
2019-02-10T22:23:28.193Z,12.25
2019-02-10T22:26:18.756Z,13.25
2019-02-10T22:29:08.853Z,13.10
2019-02-10T22:31:59.353Z,11.57
2019-02-10T22:34:49.464Z,13.10
2019-02-10T22:37:39.396Z,13.80
2019-02-10T22:40:29.346Z,12.47
2019-02-10T22:43:19.294Z,12.40
2019-02-10T22:46:09.184Z,10.68
2019-02-10T22:48:59.105Z,8.98
2019-02-10T22:51:49.424Z,10.23
2019-02-10T22:54:39.553Z,7.85
2019-02-10T22:57:29.583Z,7.55
2019-02-10T23:00:45.539Z,7.08
2019-02-10T23:03:36.901Z,6.33
2019-02-10T23:06:26.452Z,6.47
2019-02-10T23:09:23.365Z,7.17
2019-02-10T23:12:13.903Z,5.97
2019-02-10T23:15:06.822Z,4.50
2019-02-10T23:17:56.434Z,5.47
2019-02-10T23:20:46.526Z,6.45
2019-02-10T23:23:36.533Z,6.45
2019-02-10T23:26:26.885Z,5.78
2019-02-10T23:29:17.274Z,7.87
2019-02-10T23:32:06.864Z,4.87
2019-02-10T23:34:56.552Z,5.42
2019-02-10T23:37:46.304Z,4.30
2019-02-10T23:40:35.981Z,5.25
2019-02-10T23:43:25.742Z,4.15
2019-02-10T23:46:16.581Z,5.12
2019-02-10T23:49:06.672Z,4.60
2019-02-10T23:51:56.531Z,4.42
2019-02-10T23:54:46.645Z,4.70
2019-02-10T23:57:36.504Z,5.20
